ZSPD/PVG METAR and TAF weather

Enter ICAO airport designator
Station Type Date Time Source
ZSPD METAR 2019/04/20 22:30 UTC NOAA

ZSPD 202230Z 12005G12MPS 090V210 5000 BR BKN004 OVC040 18/18 Q1009 BECMG TL2320 BKN005 OVC040


Station Type Date Time Source
ZSPD Decoded METAR 2019/04/20 22:30 UTC NOAA

Shanghai / Pudong, China (ZSPD) 31-07N 121-46E
Apr 20, 2019 - 06:30 PM EDT / 2019.04.20 2230 UTC
Wind: from the ESE (120 degrees) at 11 MPH (10 KT) gusting to 27 MPH (23 KT) (direction variable):0
Visibility: 3 mile(s):0
Sky conditions: overcast
Weather: mist
Temperature: 64 F (18 C)
Dew Point: 64 F (18 C)
Relative Humidity: 100%
Pressure (altimeter): 29.80 in. Hg (1009 hPa)
ob: ZSPD 202230Z 12005G12MPS 090V210 5000 BR BKN004 OVC040 18/18 Q1009 BECMG TL2320 BKN005 OVC040
cycle: 22

Station Type Date Time Source
ZSPD TAF 2019/04/20 18:06 UTC NOAA

TAF TAF ZSPD 201528Z 2018/2118 11005MPS 3500 BR BKN003 TX23/2106Z TN17/2021Z
TEMPO 2020/2024 0700 FG BKN001
BECMG 2100/2101 BKN006
BECMG 2101/2102 BKN010

Example: see airport list